Home > Products > Valid Products > TAF

000
FTUS43 KLSX 041500 AAB
TAFSUS
TAF AMD
KSUS 041523Z 0415/0512 35011KT 2SM -SN OVC025
     FM041900 35010G16KT P6SM OVC090
     FM050000 35007KT P6SM BKN150=



000
FTUS43 KLSX 041400 AAB
TAFSTL
TAF AMD
KSTL 041456Z 0415/0518 35015KT P6SM -SN SCT025 OVC050
     FM041600 35012G18KT 2SM -SN OVC025
     FM041900 35012G18KT P6SM OVC090
     FM050000 35010KT P6SM BKN150=



000
FTUS43 KLSX 041400 AAB
TAFCOU
TAF AMD
KCOU 041447Z 0415/0512 36013KT P6SM -SN OVC040
     FM050000 35008KT P6SM SCT150=



000
FTUS43 KLSX 041300 AAA
TAFSUS
TAF AMD
KSUS 041355Z 0414/0512 34013G19KT P6SM -SN OVC025
     FM041600 35010G16KT 2SM -SN OVC025
     FM041900 35010G16KT P6SM OVC090
     FM050000 35007KT P6SM BKN150=



000
FTUS43 KLSX 041300 AAA
TAFSTL
TAF AMD
KSTL 041355Z 0414/0518 35015G21KT P6SM -SN OVC025
     FM041600 35012G18KT 2SM -SN OVC025
     FM041900 35012G18KT P6SM OVC090
     FM050000 35010KT P6SM BKN150=



000
FTUS43 KLSX 041300 AAA
TAFCOU
TAF AMD
KCOU 041337Z 0414/0512 36015KT 1SM -SN OVC020
     FM041500 36013KT P6SM OVC090
     FM050000 35008KT P6SM SCT150=



000
FTUS43 KLSX 041300 AAA
TAFCOU
TAF AMD
KCOU 041337Z 0414/0512 36015KT 1SM -SN OVC020
     FM041500 36013KT P6SM OVC090
     FM050000 35008KT P6SM SCT150=



000
FTUS43 KLSX 041100
TAFUIN
TAF
KUIN 041125Z 0412/0512 34015KT P6SM BKN150
     FM042300 34007KT P6SM SCT200=



000
FTUS43 KLSX 041100
TAFSUS
TAF
KSUS 041125Z 0412/0512 34013G19KT P6SM -SN OVC025
     FM041500 35010G16KT 2SM -SN OVC025
     FM041900 35010G16KT P6SM OVC090
     FM050000 35007KT P6SM BKN150=



000
FTUS43 KLSX 041100
TAFSTL
TAF
KSTL 041125Z 0412/0518 35015G21KT P6SM -SN OVC025
     FM041500 35012G18KT 3SM -SN OVC025
     FM041900 35012G18KT P6SM OVC090
     FM050000 35010KT P6SM BKN150=



000
FTUS43 KLSX 041100
TAFCOU
TAF
KCOU 041125Z 0412/0512 36015G22KT 2SM -SN OVC025
     FM041500 36013KT P6SM OVC090
     FM050000 35008KT P6SM SCT150=



000
FTUS43 KLSX 041100
TAFCOU
TAF
KCOU 041125Z 0412/0512 36015G22KT 2SM -SN OVC025
     FM041500 36013KT P6SM OVC090
     FM050000 35008KT P6SM SCT150=



000
FTUS43 KLSX 041100
TAFSUS
TAF
KSUS 041125Z 0412/0512 34013G19KT P6SM -SN OVC025
     FM041500 35010G16KT 2SM -SN OVC025
     FM041900 35010G16KT P6SM OVC090
     FM050000 35007KT P6SM BKN150=



000
FTUS43 KLSX 041100
TAFSTL
TAF
KSTL 041125Z 0412/0518 35015G21KT P6SM -SN OVC025
     FM041500 35012G18KT 3SM -SN OVC025
     FM041900 35012G18KT P6SM OVC090
     FM050000 35010KT P6SM BKN150=



000
FTUS43 KLSX 041100
TAFUIN
TAF
KUIN 041125Z 0412/0512 34015KT P6SM BKN150
     FM042300 34007KT P6SM SCT200=



000
FTUS43 KLSX 041000 AAC
TAFSUS
TAF AMD
KSUS 041037Z 0411/0506 34010G16KT P6SM -SN OVC025
     FM041500 35010G16KT 3SM -SN OVC025
     FM041900 35010G16KT P6SM OVC090
     FM050000 35007KT P6SM BKN150=



000
FTUS43 KLSX 041000 AAC
TAFSTL
TAF AMD
KSTL 041036Z 0411/0512 35012G18KT P6SM -SN OVC025
     FM041500 35012G18KT 3SM -SN OVC025
     FM041900 35012G18KT P6SM OVC090
     FM050000 35009KT P6SM BKN150=



000
FTUS43 KLSX 041000 AAC
TAFSTL
TAF AMD
KSTL 041036Z 0411/0512 35012G18KT P6SM -SN OVC025
     FM041500 35012G18KT 3SM -SN OVC025
     FM041900 35012G18KT P6SM OVC090
     FM050000 35009KT P6SM BKN150=



000
FTUS43 KLSX 040900 AAB
TAFCOU
TAF AMD
KCOU 040933Z 0410/0506 36015KT P6SM OVC017
     FM041200 36014KT 4SM -SN OVC025
     FM041500 36013KT P6SM OVC090
     FM050000 35010KT P6SM SCT150=



000
FTUS43 KLSX 040900 AAB
TAFSUS
TAF AMD
KSUS 040908Z 0409/0506 34007KT P6SM OVC035
      TEMPO 0410/0412 -SN
     FM041500 35010G16KT 3SM -SN OVC035
     FM041900 35010G16KT P6SM OVC090
     FM050000 35007KT P6SM BKN150=



000
FTUS43 KLSX 040900 AAB
TAFSTL
TAF AMD
KSTL 040907Z 0409/0512 35008KT P6SM OVC035
      TEMPO 0410/0412 -SN
     FM041500 35012G18KT 3SM -SN OVC035
     FM041900 35012G18KT P6SM OVC090
     FM050000 35009KT P6SM BKN150=



000
FTUS43 KLSX 040800 AAA
TAFCOU
TAF AMD
KCOU 040853Z 0409/0506 36015KT P6SM BKN035 OVC090
      TEMPO 0409/0411 OVC015
     FM041500 36013KT P6SM OVC090
     FM050000 35010KT P6SM SCT150=



000
FTUS43 KLSX 040800 AAA
TAFUIN
TAF AMD
KUIN 040807Z 0408/0506 34015KT P6SM BKN150
     FM042300 34007KT P6SM SCT200=



000
FTUS43 KLSX 040800 AAA
TAFUIN
TAF AMD
KUIN 040807Z 0408/0506 34015KT P6SM BKN150
     FM042300 34007KT P6SM SCT200=



000
FTUS43 KLSX 040800 AAA
TAFSUS
TAF AMD
KSUS 040800Z 0408/0506 34007KT P6SM OVC035
      TEMPO 0408/0411 -PLSN OVC030
     FM041500 35010G16KT 3SM -SN OVC035
     FM041900 35010G16KT P6SM OVC090
     FM050000 35007KT P6SM BKN150=



000
FTUS43 KLSX 040800 AAA
TAFSUS
TAF AMD
KSUS 040800Z 0408/0506 34007KT P6SM OVC035
      TEMPO 0408/0411 -PLSN OVC030
     FM041500 35010G16KT 3SM -SN OVC035
     FM041900 35010G16KT P6SM OVC090
     FM050000 35007KT P6SM BKN150=



000
FTUS43 KLSX 040700 AAA
TAFSTL
TAF AMD
KSTL 040757Z 0408/0512 35008KT P6SM OVC035
      TEMPO 0408/0411 -PLSN OVC030
     FM041500 35012G18KT 3SM -SN OVC035
     FM041900 35012G18KT P6SM OVC090
     FM050000 35009KT P6SM BKN150=



000
FTUS43 KLSX 040700 AAA
TAFSTL
TAF AMD
KSTL 040757Z 0408/0512 35008KT P6SM OVC035
      TEMPO 0408/0411 -PLSN OVC030
     FM041500 35012G18KT 3SM -SN OVC035
     FM041900 35012G18KT P6SM OVC090
     FM050000 35009KT P6SM BKN150=



000
FTUS43 KLSX 040500
TAFSUS
TAF
KSUS 040520Z 0406/0506 36008KT 4SM -RA BR OVC020
      TEMPO 0406/0410 2SM -RAPL BR OVC015
     FM041000 35012KT 5SM -SN BKN015
     FM041600 35012G20KT P6SM SCT015 OVC120
     FM042300 35008KT P6SM BKN120=



000
FTUS43 KLSX 040500
TAFSTL
TAF
KSTL 040520Z 0406/0512 35008KT 4SM -RA BR OVC020
      TEMPO 0406/0410 2SM -RAPL BR OVC015
     FM041000 35012KT 5SM -SN BKN015
     FM041600 35012G20KT P6SM SCT015 OVC120
     FM042300 35010KT P6SM BKN120=



000
FTUS43 KLSX 040500
TAFCOU
TAF
KCOU 040520Z 0406/0506 36010KT P6SM OVC030
     FM041300 35014G22KT P6SM SCT015 BKN120
     FM042300 35010KT P6SM BKN120=



000
FTUS43 KLSX 040500
TAFUIN
TAF
KUIN 040520Z 0406/0506 34012KT P6SM BKN030
     FM041000 34012G20KT P6SM SCT015 BKN120
     FM042300 34010KT P6SM BKN120=



000
FTUS43 KLSX 040200 AAC
TAFSTL
TAF AMD
KSTL 040246Z 0403/0506 33010KT P6SM OVC020
      TEMPO 0403/0406 4SM -RA BR OVC008
     FM040600 34014G20KT P6SM OVC025
     FM041600 35012G20KT P6SM SCT015 OVC100=



000
FTUS43 KLSX 040200 AAC
TAFSTL
TAF AMD
KSTL 040246Z 0403/0506 33010KT P6SM OVC020
      TEMPO 0403/0406 4SM -RA BR OVC008
     FM040600 34014G20KT P6SM OVC025
     FM041600 35012G20KT P6SM SCT015 OVC100=



000
FTUS43 KLSX 040200 AAA
TAFUIN
TAF AMD
KUIN 040215Z 0402/0424 32012KT P6SM OVC025
     FM041000 34015G22KT P6SM SCT015 BKN120=



000
FTUS43 KLSX 040200 AAB
TAFCOU
TAF AMD
KCOU 040214Z 0402/0424 34012KT P6SM OVC025
     FM041300 34014G22KT P6SM SCT015 OVC050=



000
FTUS43 KLSX 040200 AAB
TAFSUS
TAF AMD
KSUS 040205Z 0402/0424 33006KT P6SM OVC020
      TEMPO 0402/0406 4SM -RA BR OVC012
     FM040600 34012G20KT P6SM OVC025
     FM041600 35012G20KT P6SM SCT015 OVC100=



000
FTUS43 KLSX 040200 AAB
TAFSTL
TAF AMD
KSTL 040204Z 0402/0506 33009KT P6SM OVC020
      TEMPO 0402/0406 4SM -RA BR OVC012
     FM040600 34014G20KT P6SM OVC025
     FM041600 35012G20KT P6SM SCT015 OVC100=



000
FTUS43 KLSX 040200 AAB
TAFSTL
TAF AMD
KSTL 040204Z 0402/0506 33009KT P6SM OVC020
      TEMPO 0402/0406 4SM -RA BR OVC012
     FM040600 34014G20KT P6SM OVC025
     FM041600 35012G20KT P6SM SCT015 OVC100=



000
FTUS43 KLSX 040000 AAA
TAFSTL
TAF AMD
KSTL 040048Z 0401/0506 28008KT P6SM OVC025
     FM040600 34014G20KT P6SM OVC025
     FM041600 35012G20KT P6SM SCT015 OVC100=



000
FTUS43 KLSX 040000 AAA
TAFSUS
TAF AMD
KSUS 040048Z 0401/0424 28006KT P6SM OVC025
     FM040600 34012G20KT P6SM OVC025
     FM041600 35012G20KT P6SM SCT015 OVC100=



000
FTUS43 KLSX 040000 AAA
TAFSTL
TAF AMD
KSTL 040048Z 0401/0506 28008KT P6SM OVC025
     FM040600 34014G20KT P6SM OVC025
     FM041600 35012G20KT P6SM SCT015 OVC100=



000
FTUS43 KLSX 040000 AAA
TAFSUS
TAF AMD
KSUS 040048Z 0401/0424 28006KT P6SM OVC025
     FM040600 34012G20KT P6SM OVC025
     FM041600 35012G20KT P6SM SCT015 OVC100=



000
FTUS43 KLSX 040000 AAA
TAFCOU
TAF AMD
KCOU 040011Z 0400/0424 28008KT 4SM BR OVC012
      TEMPO 0400/0403 2SM -RA BR OVC006
     FM040300 34014G22KT P6SM OVC025
     FM041300 34014G22KT P6SM SCT015 OVC050=



000
FTUS43 KLSX 040000 AAA
TAFCOU
TAF AMD
KCOU 040011Z 0400/0424 28008KT 4SM BR OVC012
      TEMPO 0400/0403 2SM -RA BR OVC006
     FM040300 34014G22KT P6SM OVC025
     FM041300 34014G22KT P6SM SCT015 OVC050=



000
FTUS43 KLSX 032300
TAFUIN
TAF
KUIN 032340Z 0400/0424 31009KT 5SM BR OVC015
     FM040300 34015G22KT P6SM OVC020
     FM041000 34015G22KT P6SM SCT015 BKN120=



000
FTUS43 KLSX 032300
TAFSUS
TAF
KSUS 032340Z 0400/0424 28006KT 5SM BR OVC015
     FM040600 34012G20KT P6SM OVC025
     FM041600 35012G20KT P6SM SCT015 OVC100=



000
FTUS43 KLSX 032300
TAFCOU
TAF
KCOU 032340Z 0400/0424 28008KT 5SM BR OVC015
     FM040300 34014G22KT P6SM OVC025
     FM041300 34014G22KT P6SM SCT015 OVC050=



000
FTUS43 KLSX 032300
TAFUIN
TAF
KUIN 032340Z 0400/0424 31009KT 5SM BR OVC015
     FM040300 34015G22KT P6SM OVC020
     FM041000 34015G22KT P6SM SCT015 BKN120=



000
FTUS43 KLSX 032300
TAFCOU
TAF
KCOU 032340Z 0400/0424 28008KT 5SM BR OVC015
     FM040300 34014G22KT P6SM OVC025
     FM041300 34014G22KT P6SM SCT015 OVC050=



000
FTUS43 KLSX 032300
TAFSTL
TAF
KSTL 032340Z 0400/0506 28008KT 5SM BR OVC015
     FM040600 34014G20KT P6SM OVC025
     FM041600 35012G20KT P6SM SCT015 OVC100=



000
FTUS43 KLSX 032300
TAFSUS
TAF
KSUS 032340Z 0400/0424 28006KT 5SM BR OVC015
     FM040600 34012G20KT P6SM OVC025
     FM041600 35012G20KT P6SM SCT015 OVC100=



000
FTUS43 KLSX 032300
TAFSTL
TAF
KSTL 032340Z 0400/0506 28008KT 5SM BR OVC015
     FM040600 34014G20KT P6SM OVC025
     FM041600 35012G20KT P6SM SCT015 OVC100=



000
FTUS43 KLSX 032000 AAA
TAFSUS
TAF AMD
KSUS 032059Z 0321/0418 25010KT P6SM OVC012
      TEMPO 0321/0324 BKN007
     FM040000 30010KT P6SM OVC015
     FM040500 34014KT P6SM SCT007 OVC015
     FM041600 35012KT P6SM SCT015 OVC040=



000
FTUS43 KLSX 032000 AAB
TAFSTL
TAF AMD
KSTL 032058Z 0321/0424 26010KT P6SM SCT007 OVC012
      TEMPO 0321/0324 4SM BR BKN025
     FM040000 30010KT P6SM OVC015
     FM040500 34014KT P6SM SCT007 OVC015
     FM041600 35012KT P6SM SCT015 OVC040=



000
FTUS43 KLSX 032000 AAB
TAFSTL
TAF AMD
KSTL 032058Z 0321/0424 26010KT P6SM SCT007 OVC012
      TEMPO 0321/0324 4SM BR BKN025
     FM040000 30010KT P6SM OVC015
     FM040500 34014KT P6SM SCT007 OVC015
     FM041600 35012KT P6SM SCT015 OVC040=



000
FTUS43 KLSX 032000 AAB
TAFCOU
TAF AMD
KCOU 032045Z 0321/0418 24015KT P6SM OVC015
     FM032200 29012KT P6SM OVC015
     FM040300 34014KT P6SM OVC015
     FM041300 34014KT P6SM SCT015 OVC050=



000
FTUS43 KLSX 032000 AAA
TAFUIN
TAF AMD
KUIN 032043Z 0321/0418 27012KT 2SM BR OVC006
     FM032300 30013KT P6SM OVC015
     FM040300 34015KT P6SM OVC015
     FM041000 34015KT P6SM SCT015 BKN120=



000
FTUS43 KLSX 031900 AAA
TAFCOU
TAF AMD
KCOU 031910Z 0319/0418 24015G23KT P6SM OVC015
      TEMPO 0319/0322 4SM BR BKN007
     FM032200 29012KT P6SM OVC015
     FM040300 34014KT P6SM OVC015
     FM041300 34014KT P6SM SCT015 OVC050=



000
FTUS43 KLSX 031900 AAA
TAFSTL
TAF AMD
KSTL 031902Z 0319/0424 24010G20KT P6SM OVC012
      TEMPO 0319/0320 2SM -RA BR BKN007
     FM040000 30010KT P6SM OVC015
     FM040500 34014KT P6SM SCT007 OVC015
     FM041600 35012KT P6SM SCT015 OVC040=



000
FTUS43 KLSX 031700
TAFUIN
TAF
KUIN 031720Z 0318/0418 22015G23KT 1SM BR OVC003
     FM032100 28012KT P6SM OVC015
     FM040300 34015KT P6SM OVC015
     FM041000 34015KT P6SM SCT015 BKN120=



000
FTUS43 KLSX 031700
TAFCOU
TAF
KCOU 031720Z 0318/0418 24015G23KT 4SM BR OVC005
     FM032200 29012KT P6SM OVC015
     FM040300 34014KT P6SM OVC015
     FM041300 34014KT P6SM SCT015 OVC050=



000
FTUS43 KLSX 031700
TAFSTL
TAF
KSTL 031720Z 0318/0424 22014G22KT P6SM OVC012
      TEMPO 0320/0324 BKN007
     FM040000 30010KT P6SM OVC015
     FM040500 34014KT P6SM SCT007 OVC015
     FM041600 35012KT P6SM SCT015 OVC040=



000
FTUS43 KLSX 031700
TAFCOU
TAF
KCOU 031720Z 0318/0418 24015G23KT 4SM BR OVC005
     FM032200 29012KT P6SM OVC015
     FM040300 34014KT P6SM OVC015
     FM041300 34014KT P6SM SCT015 OVC050=



000
FTUS43 KLSX 031700
TAFSTL
TAF
KSTL 031720Z 0318/0424 22014G22KT P6SM OVC012
      TEMPO 0320/0324 BKN007
     FM040000 30010KT P6SM OVC015
     FM040500 34014KT P6SM SCT007 OVC015
     FM041600 35012KT P6SM SCT015 OVC040=



000
FTUS43 KLSX 031700
TAFSUS
TAF
KSUS 031720Z 0318/0418 22014G22KT P6SM OVC012
      TEMPO 0320/0324 BKN007
     FM040000 30010KT P6SM OVC015
     FM040500 34014KT P6SM SCT007 OVC015
     FM041600 35012KT P6SM SCT015 OVC040=



000
FTUS43 KLSX 031700
TAFSUS
TAF
KSUS 031720Z 0318/0418 22014G22KT P6SM OVC012
      TEMPO 0320/0324 BKN007
     FM040000 30010KT P6SM OVC015
     FM040500 34014KT P6SM SCT007 OVC015
     FM041600 35012KT P6SM SCT015 OVC040=



000
FTUS43 KLSX 031700
TAFUIN
TAF
KUIN 031720Z 0318/0418 22015G23KT 1SM BR OVC003
     FM032100 28012KT P6SM OVC015
     FM040300 34015KT P6SM OVC015
     FM041000 34015KT P6SM SCT015 BKN120=



000
FTUS43 KLSX 031500 AAA
TAFCOU
TAF AMD
KCOU 031523Z 0315/0412 19012KT 3SM BR OVC004
     FM031700 23015G23KT P6SM OVC012
     FM032200 29012KT P6SM OVC015
     FM040300 34013G19KT P6SM BKN120=



000
FTUS43 KLSX 031500 AAB
TAFUIN
TAF AMD
KUIN 031522Z 0315/0412 17012KT 5SM BR OVC006
      TEMPO 0315/0317 1SM BR OVC004
     FM031700 22015G23KT P6SM OVC010
     FM032100 28012KT P6SM OVC015
     FM040300 34015G22KT P6SM BKN150=



000
FTUS43 KLSX 031500 AAB
TAFSTL
TAF AMD
KSTL 031520Z 0315/0418 18012KT 5SM HZ OVC007
     FM031800 22014G22KT P6SM OVC012
     FM040000 30010KT P6SM OVC015
     FM040500 34013G19KT P6SM OVC050=



000
FTUS43 KLSX 031400 AAA
TAFUIN
TAF AMD
KUIN 031424Z 0314/0412 17011KT 4SM -FZDZ BR OVC015
      TEMPO 0314/0315 1SM -FZRA BR OVC009
     FM031500 17012KT 5SM BR OVC006
     FM031700 22015G23KT P6SM OVC010
     FM032100 28012KT P6SM OVC015
     FM040300 34015G22KT P6SM BKN150=



000
FTUS43 KLSX 031400 AAA
TAFUIN
TAF AMD
KUIN 031424Z 0314/0412 17011KT 4SM -FZDZ BR OVC015
      TEMPO 0314/0315 1SM -FZRA BR OVC009
     FM031500 17012KT 5SM BR OVC006
     FM031700 22015G23KT P6SM OVC010
     FM032100 28012KT P6SM OVC015
     FM040300 34015G22KT P6SM BKN150=



000
FTUS43 KLSX 031100 AAA
TAFSTL
TAF AMD
KSTL 031155Z 0312/0418 14009KT P6SM -RA OVC015
     FM031300 16010KT 6SM -RA BR OVC009
     FM031500 18012G18KT P6SM OVC009
     FM031800 22014G22KT P6SM OVC012
     FM040000 30010KT P6SM OVC015
     FM040500 34013G19KT P6SM OVC050=



000
FTUS43 KLSX 031100
TAFUIN
TAF
KUIN 031125Z 0312/0412 16011KT 4SM -FZDZ BR OVC015
      TEMPO 0312/0314 OVC009
     FM031400 17012KT 5SM BR OVC006
     FM031700 22015G23KT P6SM OVC010
     FM032100 28012KT P6SM OVC015
     FM040300 34015G22KT P6SM BKN150=



000
FTUS43 KLSX 031100
TAFSTL
TAF
KSTL 031125Z 0312/0418 14009KT P6SM OVC015
     FM031300 16010KT 6SM -RA BR OVC009
     FM031500 18012G18KT P6SM OVC009
     FM031800 22014G22KT P6SM OVC012
     FM040000 30010KT P6SM OVC015
     FM040500 34013G19KT P6SM OVC050=



000
FTUS43 KLSX 031100
TAFCOU
TAF
KCOU 031125Z 0312/0412 16010KT 6SM -RA BR OVC009
     FM031400 19012G18KT P6SM OVC009
     FM031700 23015G23KT P6SM OVC012
     FM032200 29012KT P6SM OVC015
     FM040300 34013G19KT P6SM BKN120=



000
FTUS43 KLSX 031100
TAFSUS
TAF
KSUS 031125Z 0312/0412 15007KT 6SM -RA BR OVC009
      TEMPO 0312/0313 OVC015
     FM031500 18010G16KT P6SM OVC009
     FM031800 22012G18KT P6SM OVC013
     FM040000 30009KT P6SM OVC017
     FM040500 34012G18KT P6SM OVC050=



000
FTUS43 KLSX 031000 AAC
TAFSUS
TAF AMD
KSUS 031045Z 0311/0406 12005KT P6SM OVC019
     FM031200 15007KT 6SM -RA BR OVC009
     FM031500 18010G16KT P6SM OVC009
     FM031800 22012G18KT P6SM OVC012
     FM040000 30009KT P6SM OVC012
     FM040500 34012G18KT P6SM BKN120=



000
FTUS43 KLSX 031000 AAC
TAFSTL
TAF AMD
KSTL 031044Z 0311/0412 14009KT P6SM OVC018
     FM031300 16010KT 6SM -RA BR OVC009
     FM031500 18012G18KT P6SM OVC009
     FM031800 22014G22KT P6SM OVC012
     FM040000 30010KT P6SM OVC012
     FM040500 34013G19KT P6SM BKN120=



000
FTUS43 KLSX 030900 AAA
TAFUIN
TAF AMD
KUIN 030911Z 0309/0406 16011KT 4SM -FZDZ BR OVC018
     FM031300 17012KT P6SM OVC008
     FM031700 22015G23KT P6SM OVC010
     FM032100 28012KT P6SM OVC012
     FM040300 34015G22KT P6SM BKN120=



000
FTUS43 KLSX 030900 AAA
TAFCOU
TAF AMD
KCOU 030901Z 0309/0406 14009KT 6SM -RA BR OVC012
     FM031100 16010KT 6SM -RA BR OVC009
     FM031400 19012G18KT P6SM OVC009
     FM031700 23015G23KT P6SM OVC012
     FM032200 29012KT P6SM OVC012
     FM040300 34013G19KT P6SM BKN120=



000
FTUS43 KLSX 030800 AAB
TAFSUS
TAF AMD
KSUS 030847Z 0309/0406 14005KT P6SM OVC019
     FM031000 15007KT 6SM -FZRA BR OVC012
     FM031100 16008KT 6SM -RA BR OVC009
     FM031500 18010G16KT P6SM OVC009
     FM031800 22012G18KT P6SM OVC012
     FM040000 30009KT P6SM OVC012
     FM040500 34012G18KT P6SM BKN120=



000
FTUS43 KLSX 030800 AAB
TAFSUS
TAF AMD
KSUS 030847Z 0309/0406 14005KT P6SM OVC019
     FM031000 15007KT 6SM -FZRA BR OVC012
     FM031100 16008KT 6SM -RA BR OVC009
     FM031500 18010G16KT P6SM OVC009
     FM031800 22012G18KT P6SM OVC012
     FM040000 30009KT P6SM OVC012
     FM040500 34012G18KT P6SM BKN120=



000
FTUS43 KLSX 030800 AAB
TAFSTL
TAF AMD
KSTL 030844Z 0309/0412 14009KT P6SM OVC019
     FM031000 15010KT 6SM -FZRA BR OVC012
     FM031100 16010KT 6SM -RA BR OVC009
     FM031500 18012G18KT P6SM OVC009
     FM031800 22014G22KT P6SM OVC012
     FM040000 30010KT P6SM OVC012
     FM040500 34013G19KT P6SM BKN120=



000
FTUS43 KLSX 030800 AAB
TAFSTL
TAF AMD
KSTL 030844Z 0309/0412 14009KT P6SM OVC019
     FM031000 15010KT 6SM -FZRA BR OVC012
     FM031100 16010KT 6SM -RA BR OVC009
     FM031500 18012G18KT P6SM OVC009
     FM031800 22014G22KT P6SM OVC012
     FM040000 30010KT P6SM OVC012
     FM040500 34013G19KT P6SM BKN120=



000
FTUS43 KLSX 030600 AAA
TAFSTL
TAF AMD
KSTL 030605Z 0306/0412 16009KT P6SM BKN030
     FM030700 16010KT 4SM -FZRA BR SCT008 OVC020
     FM031200 18012KT 6SM -RA BR OVC009
     FM032200 25006KT 6SM -DZ BR OVC009
     FM040300 31010KT P6SM OVC009
     FM040700 34008KT P6SM SCT012 BKN035=



000
FTUS43 KLSX 030600 AAA
TAFSTL
TAF AMD
KSTL 030605Z 0306/0412 16009KT P6SM BKN030
     FM030700 16010KT 4SM -FZRA BR SCT008 OVC020
     FM031200 18012KT 6SM -RA BR OVC009
     FM032200 25006KT 6SM -DZ BR OVC009
     FM040300 31010KT P6SM OVC009
     FM040700 34008KT P6SM SCT012 BKN035=



000
FTUS43 KLSX 030600 AAA
TAFSUS
TAF AMD
KSUS 030604Z 0306/0406 13009KT P6SM BKN030
     FM030700 16010KT 4SM -FZRA BR SCT008 OVC020
     FM031200 18011KT 6SM -RA BR OVC009
     FM032200 25006KT 6SM -DZ BR OVC009
     FM040300 31010KT P6SM OVC009=



000
FTUS43 KLSX 030600 AAA
TAFSUS
TAF AMD
KSUS 030604Z 0306/0406 13009KT P6SM BKN030
     FM030700 16010KT 4SM -FZRA BR SCT008 OVC020
     FM031200 18011KT 6SM -RA BR OVC009
     FM032200 25006KT 6SM -DZ BR OVC009
     FM040300 31010KT P6SM OVC009=



000
FTUS43 KLSX 030500
TAFSTL
TAF
KSTL 030540Z 0306/0412 16009KT P6SM BKN035
     FM030700 16010KT 4SM -FZRA BR SCT008 OVC020
     FM031200 18012KT 6SM -RA BR OVC009
     FM032200 25006KT 6SM -DZ BR OVC009
     FM040300 31010KT P6SM OVC009
     FM040700 34008KT P6SM SCT012 BKN035=



000
FTUS43 KLSX 030500
TAFCOU
TAF
KCOU 030540Z 0306/0406 15012KT 6SM -FZRA BR OVC025
     FM030800 19014KT 4SM -FZRA BR BKN007 OVC015
     FM031100 19014KT 4SM -RA BR OVC008
     FM031900 23014G20KT P6SM OVC012
     FM040300 32010KT P6SM SCT012 OVC030=



000
FTUS43 KLSX 030500
TAFSUS
TAF
KSUS 030540Z 0306/0406 13009KT P6SM BKN035
     FM030700 16010KT 4SM -FZRA BR SCT008 OVC020
     FM031200 18011KT 6SM -RA BR OVC009
     FM032200 25006KT 6SM -DZ BR OVC009
     FM040300 31010KT P6SM OVC009=



000
FTUS43 KLSX 030500
TAFSTL
TAF
KSTL 030540Z 0306/0412 16009KT P6SM BKN035
     FM030700 16010KT 4SM -FZRA BR SCT008 OVC020
     FM031200 18012KT 6SM -RA BR OVC009
     FM032200 25006KT 6SM -DZ BR OVC009
     FM040300 31010KT P6SM OVC009
     FM040700 34008KT P6SM SCT012 BKN035=



000
FTUS43 KLSX 030500
TAFUIN
TAF
KUIN 030540Z 0306/0406 15012KT 6SM -FZRA BR OVC035
     FM030900 16012KT 4SM -FZRA BR BKN008 OVC020
     FM031300 19015G20KT 4SM -RA BR OVC008
     FM032100 27012KT P6SM OVC009
     FM040200 32010KT P6SM SCT009 OVC012=



000
FTUS43 KLSX 030500
TAFSUS
TAF
KSUS 030540Z 0306/0406 13009KT P6SM BKN035
     FM030700 16010KT 4SM -FZRA BR SCT008 OVC020
     FM031200 18011KT 6SM -RA BR OVC009
     FM032200 25006KT 6SM -DZ BR OVC009
     FM040300 31010KT P6SM OVC009=



000
FTUS43 KLSX 030500
TAFCOU
TAF
KCOU 030540Z 0306/0406 15012KT 6SM -FZRA BR OVC025
     FM030800 19014KT 4SM -FZRA BR BKN007 OVC015
     FM031100 19014KT 4SM -RA BR OVC008
     FM031900 23014G20KT P6SM OVC012
     FM040300 32010KT P6SM SCT012 OVC030=



000
FTUS43 KLSX 030500
TAFUIN
TAF
KUIN 030540Z 0306/0406 15012KT 6SM -FZRA BR OVC035
     FM030900 16012KT 4SM -FZRA BR BKN008 OVC020
     FM031300 19015G20KT 4SM -RA BR OVC008
     FM032100 27012KT P6SM OVC009
     FM040200 32010KT P6SM SCT009 OVC012=



000
FTUS43 KLSX 030300 AAA
TAFCOU
TAF AMD
KCOU 030337Z 0304/0324 14007KT P6SM OVC040
      TEMPO 0304/0306 6SM -RA
     FM030600 16012KT P6SM VCSH OVC007
     FM031200 19014KT P6SM OVC007
     FM031900 23014G20KT P6SM OVC012=



000
FTUS43 KLSX 030300 AAA
TAFCOU
TAF AMD
KCOU 030337Z 0304/0324 14007KT P6SM OVC040
      TEMPO 0304/0306 6SM -RA
     FM030600 16012KT P6SM VCSH OVC007
     FM031200 19014KT P6SM OVC007
     FM031900 23014G20KT P6SM OVC012=



000
FTUS43 KLSX 022300
TAFSTL
TAF
KSTL 022335Z 0300/0406 12006KT P6SM BKN250
     FM030300 13007KT P6SM BKN050
     FM030700 15010KT 4SM -FZRA BR OVC008
     FM031100 18012KT 6SM -RA BR OVC009
     FM032200 25006KT 6SM -DZ BR OVC009
     FM040300 30008KT P6SM OVC009=



000
FTUS43 KLSX 022300
TAFUIN
TAF
KUIN 022335Z 0300/0324 12008KT P6SM OVC100
     FM030300 13007KT P6SM OVC050
     FM030500 15012KT 4SM -FZRA BR OVC008
     FM031300 19015G20KT 4SM -RA BR OVC008
     FM032100 27010KT P6SM OVC009=



000
FTUS43 KLSX 022300
TAFCOU
TAF
KCOU 022335Z 0300/0324 14007KT P6SM BKN040
     FM030500 16012KT P6SM VCSH OVC007
     FM031500 19014KT P6SM OVC007
     FM031900 23014G20KT P6SM OVC012=



000
FTUS43 KLSX 022300
TAFSUS
TAF
KSUS 022335Z 0300/0324 12006KT P6SM BKN250
     FM030300 13007KT P6SM BKN050
     FM030700 15010KT 4SM -FZRA BR OVC008
     FM031100 18011KT 6SM -RA BR OVC009
     FM032200 25006KT 6SM -DZ BR OVC009=



000
FTUS43 KLSX 022100 AAA
TAFSTL
TAF AMD
KSTL 022117Z 0221/0324 12006KT P6SM BKN250
     FM030300 13007KT P6SM BKN050
     FM030700 15010KT 4SM -FZRA BR OVC008
     FM031100 18011KT 6SM -RA BR OVC009
     FM032200 25006KT P6SM VCSH OVC009=



000
FTUS43 KLSX 021700
TAFCOU
TAF
KCOU 021735Z 0218/0318 10005KT P6SM BKN250
     FM030000 14007KT P6SM BKN040
     FM030500 16012KT P6SM VCSH OVC007
     FM031500 19014KT P6SM OVC007=



000
FTUS43 KLSX 021700
TAFSTL
TAF
KSTL 021735Z 0218/0324 09006KT P6SM BKN250
     FM030300 13007KT P6SM BKN050
     FM030700 15010KT 4SM -FZRA BR OVC008
     FM031100 18011KT 6SM -RA BR OVC009
     FM032200 25006KT P6SM VCSH OVC009=



000
FTUS43 KLSX 021700
TAFSUS
TAF
KSUS 021735Z 0218/0318 07006KT P6SM BKN250
     FM030300 13007KT P6SM BKN050
     FM030700 15010KT 4SM -FZRA BR OVC008
     FM031100 18011KT 6SM -RA BR OVC009=



000
FTUS43 KLSX 021700
TAFUIN
TAF
KUIN 021735Z 0218/0318 09006KT P6SM BKN250
     FM030100 12008KT P6SM OVC100
     FM030500 11007KT P6SM BKN050
     FM030800 15012KT 4SM -FZRA BR OVC008
     FM031300 19015KT 4SM -RA BR OVC008=



000
FTUS43 KLSX 021700
TAFSTL
TAF
KSTL 021735Z 0218/0324 09006KT P6SM BKN250
     FM030300 13007KT P6SM BKN050
     FM030700 15010KT 4SM -FZRA BR OVC008
     FM031100 18011KT 6SM -RA BR OVC009
     FM032200 25006KT P6SM VCSH OVC009=



000
FTUS43 KLSX 021700
TAFCOU
TAF
KCOU 021735Z 0218/0318 10005KT P6SM BKN250
     FM030000 14007KT P6SM BKN040
     FM030500 16012KT P6SM VCSH OVC007
     FM031500 19014KT P6SM OVC007=



000
FTUS43 KLSX 021700
TAFSUS
TAF
KSUS 021735Z 0218/0318 07006KT P6SM BKN250
     FM030300 13007KT P6SM BKN050
     FM030700 15010KT 4SM -FZRA BR OVC008
     FM031100 18011KT 6SM -RA BR OVC009=



000
FTUS43 KLSX 021700
TAFUIN
TAF
KUIN 021735Z 0218/0318 09006KT P6SM BKN250
     FM030100 12008KT P6SM OVC100
     FM030500 11007KT P6SM BKN050
     FM030800 15012KT 4SM -FZRA BR OVC008
     FM031300 19015KT 4SM -RA BR OVC008=



000
FTUS43 KLSX 021600 AAB
TAFSTL
TAF AMD
KSTL 021609Z 0216/0318 09004KT P6SM BKN250
     FM030600 13007KT P6SM OVC040
     FM030900 14008KT 4SM -FZRA BR OVC008
     FM031200 16008KT 6SM -RA BR OVC009=



000
FTUS43 KLSX 021600 AAB
TAFSTL
TAF AMD
KSTL 021609Z 0216/0318 09004KT P6SM BKN250
     FM030600 13007KT P6SM OVC040
     FM030900 14008KT 4SM -FZRA BR OVC008
     FM031200 16008KT 6SM -RA BR OVC009=



000
FTUS43 KLSX 021300 AAA
TAFSTL
TAF AMD
KSTL 021345Z 0214/0318 VRB03KT 5SM BR BKN250
     FM021500 09005KT P6SM SCT080
     FM030600 13007KT P6SM OVC040
     FM030900 14008KT 4SM -FZRA BR OVC008
     FM031200 16008KT 6SM -RA BR OVC009=



000
FTUS43 KLSX 021300 AAA
TAFSUS
TAF AMD
KSUS 021344Z 0214/0312 00000KT 5SM BR SKC
     FM021500 08005KT P6SM BKN250
     FM030300 12004KT P6SM OVC100
     FM030900 14008KT 4SM -FZRA BR OVC008=



000
FTUS43 KLSX 021300 AAA
TAFSUS
TAF AMD
KSUS 021344Z 0214/0312 00000KT 5SM BR SKC
     FM021500 08005KT P6SM BKN250
     FM030300 12004KT P6SM OVC100
     FM030900 14008KT 4SM -FZRA BR OVC008=



000
FTUS43 KLSX 021300 AAB
TAFCOU
TAF AMD
KCOU 021342Z 0214/0312 VRB03KT 3SM BR BKN250
      TEMPO 0214/0215 2SM BR
     FM021600 09005KT P6SM BKN250
     FM030200 13007KT P6SM BKN040
     FM030800 15010KT P6SM VCSH OVC007=



000
FTUS43 KLSX 021300 AAA
TAFUIN
TAF AMD
KUIN 021340Z 0214/0312 VRB03KT 4SM BR BKN250
      TEMPO 0214/0215 2SM BR
     FM021500 07006KT P6SM BKN250
     FM022100 12008KT P6SM OVC100
     FM030500 11007KT P6SM BKN050
     FM030800 15012KT 4SM -FZRA BR OVC008=



000
FTUS43 KLSX 021100 AAA
TAFCOU
TAF AMD
KCOU 021137Z 0212/0312 VRB03KT 2SM BR BKN250
      TEMPO 0212/0213 1/4SM FZFG
     FM021400 09005KT P6SM BKN250
     FM030200 13007KT P6SM BKN040
     FM030800 15010KT P6SM VCSH OVC007=



000
FTUS43 KLSX 021100 AAA
TAFCOU
TAF AMD
KCOU 021137Z 0212/0312 VRB03KT 2SM BR BKN250
      TEMPO 0212/0213 1/4SM FZFG
     FM021400 09005KT P6SM BKN250
     FM030200 13007KT P6SM BKN040
     FM030800 15010KT P6SM VCSH OVC007=



000
FTUS43 KLSX 021100
TAFSUS
TAF
KSUS 021126Z 0212/0312 00000KT 6SM BR SKC
      TEMPO 0212/0213 3SM BR
     FM021400 08005KT P6SM BKN250
     FM030300 12004KT P6SM OVC100
     FM030900 14008KT 4SM -FZRA BR OVC008=



000
FTUS43 KLSX 021100
TAFCOU
TAF
KCOU 021126Z 0212/0312 VRB03KT 3SM BR BKN250
      TEMPO 0212/0213 2SM BR
     FM021400 09005KT P6SM BKN250
     FM030200 13007KT P6SM BKN040
     FM030800 15010KT P6SM VCSH OVC007=



000
FTUS43 KLSX 021100
TAFSTL
TAF
KSTL 021126Z 0212/0318 VRB03KT 5SM BR BKN250
     FM021400 09005KT P6SM SCT080
     FM030600 13007KT P6SM OVC040
     FM030900 14008KT 4SM -FZRA BR OVC008
     FM031200 16008KT 6SM -RA BR OVC009=



000
FTUS43 KLSX 021100
TAFUIN
TAF
KUIN 021126Z 0212/0312 VRB03KT 4SM BR BKN250
     FM021400 07006KT P6SM BKN250
     FM022100 12008KT P6SM OVC100
     FM030500 11007KT P6SM BKN050
     FM030800 15012KT 4SM -FZRA BR OVC008=



000
FTUS43 KLSX 021000 AAA
TAFUIN
TAF AMD
KUIN 021048Z 0211/0306 VRB03KT 4SM BR BKN250
     FM021400 05006KT P6SM BKN150
     FM030200 11007KT P6SM BKN060=



000
FTUS43 KLSX 020900 AAA
TAFSUS
TAF AMD
KSUS 020941Z 0210/0306 00000KT 6SM BR SKC
      TEMPO 0210/0213 3SM BR
     FM021400 08005KT P6SM BKN250
     FM030300 12004KT P6SM OVC100=



000
FTUS43 KLSX 020900 AAA
TAFSUS
TAF AMD
KSUS 020941Z 0210/0306 00000KT 6SM BR SKC
      TEMPO 0210/0213 3SM BR
     FM021400 08005KT P6SM BKN250
     FM030300 12004KT P6SM OVC100=



000
FTUS43 KLSX 020900 AAA
TAFSTL
TAF AMD
KSTL 020908Z 0209/0312 VRB03KT 6SM BR BKN250
     FM021400 09005KT P6SM SCT080
     FM030600 13007KT P6SM OVC040
     FM030900 14008KT 4SM -FZRA BR OVC008=



000
FTUS43 KLSX 020600 AAA
TAFCOU
TAF AMD
KCOU 020636Z 0207/0306 VRB03KT 6SM BR SCT250
      TEMPO 0207/0211 3SM BR
     FM021500 09005KT P6SM SCT080
     FM030200 11007KT P6SM BKN040=



000
FTUS43 KLSX 020600 AAA
TAFCOU
TAF AMD
KCOU 020636Z 0207/0306 VRB03KT 6SM BR SCT250
      TEMPO 0207/0211 3SM BR
     FM021500 09005KT P6SM SCT080
     FM030200 11007KT P6SM BKN040=



000
FTUS43 KLSX 020500
TAFSUS
TAF
KSUS 020520Z 0206/0306 00000KT 5SM BR SKC
      TEMPO 0206/0210 2SM BR
     FM021500 08005KT P6SM SCT025 BKN080=



000
FTUS43 KLSX 020500
TAFUIN
TAF
KUIN 020520Z 0206/0306 VRB03KT P6SM BKN150
     FM021500 05006KT P6SM BKN150
     FM030200 11007KT P6SM BKN060=



000
FTUS43 KLSX 020500
TAFSTL
TAF
KSTL 020520Z 0206/0312 VRB03KT P6SM BKN250
     FM021500 09005KT P6SM SCT080
     FM030600 13007KT P6SM OVC040=



000
FTUS43 KLSX 020500
TAFCOU
TAF
KCOU 020520Z 0206/0306 VRB03KT P6SM SCT250
     FM021500 09005KT P6SM SCT080
     FM030200 11007KT P6SM BKN040=



000
FTUS43 KLSX 020500 AAB
TAFSUS
TAF AMD
KSUS 020503Z 0205/0224 00000KT 5SM BR SKC
      TEMPO 0205/0209 2SM BR
     FM021500 08005KT P6SM SCT025 BKN080=



000
FTUS43 KLSX 020000 AAA
TAFUIN
TAF AMD
KUIN 020037Z 0201/0224 32004KT P6SM SCT025 BKN150
     FM021500 05007KT P6SM BKN120
     FM021800 11007KT P6SM BKN080=



000
FTUS43 KLSX 020000 AAA
TAFSTL
TAF AMD
KSTL 020036Z 0201/0306 36005KT P6SM SCT025 BKN120
     FM021500 09005KT P6SM SCT025 BKN080=



000
FTUS43 KLSX 020000 AAA
TAFSUS
TAF AMD
KSUS 020036Z 0201/0224 VRB03KT P6SM SCT025 BKN120
     FM021500 08005KT P6SM SCT025 BKN080=



000
FTUS43 KLSX 012300
TAFSTL
TAF
KSTL 012330Z 0200/0306 33006KT P6SM OVC015
     FM020200 36005KT P6SM SCT015 BKN120
     FM021500 09005KT P6SM SCT015 BKN080=



000
FTUS43 KLSX 012300
TAFCOU
TAF
KCOU 012330Z 0200/0224 34004KT P6SM BKN120
     FM021500 08005KT P6SM BKN080=



000
FTUS43 KLSX 012300
TAFUIN
TAF
KUIN 012330Z 0200/0224 32004KT P6SM SCT025 BKN150
      TEMPO 0200/0201 BKN025
     FM021500 05007KT P6SM BKN120
     FM021800 11007KT P6SM BKN080=



000
FTUS43 KLSX 012300
TAFSUS
TAF
KSUS 012330Z 0200/0224 32006KT P6SM OVC025
     FM020200 VRB02KT P6SM SCT015 BKN120
     FM021500 08005KT P6SM SCT015 BKN080=



000
FTUS43 KLSX 012300 AAA
TAFSUS
TAF AMD
KSUS 012316Z 0123/0218 32006KT P6SM OVC025
     FM020200 VRB02KT P6SM SCT015 BKN120
     FM021500 08005KT P6SM SCT015 BKN080=



000
FTUS43 KLSX 012300 AAA
TAFSUS
TAF AMD
KSUS 012316Z 0123/0218 32006KT P6SM OVC025
     FM020200 VRB02KT P6SM SCT015 BKN120
     FM021500 08005KT P6SM SCT015 BKN080=



000
FTUS43 KLSX 012100 AAB
TAFUIN
TAF AMD
KUIN 012102Z 0121/0218 30007KT P6SM SCT025 OVC250
     FM020200 30007KT P6SM SCT020 BKN150
     FM021500 04005KT P6SM SCT015=



000
FTUS43 KLSX 012100 AAA
TAFSTL
TAF AMD
KSTL 012101Z 0121/0224 31006KT P6SM OVC015
     FM020000 32006KT P6SM OVC015
     FM020900 36005KT P6SM SCT015 BKN120
     FM021700 09005KT P6SM SCT015=



000
FTUS43 KLSX 012100 AAA
TAFSTL
TAF AMD
KSTL 012101Z 0121/0224 31006KT P6SM OVC015
     FM020000 32006KT P6SM OVC015
     FM020900 36005KT P6SM SCT015 BKN120
     FM021700 09005KT P6SM SCT015=



000
FTUS43 KLSX 012000 AAA
TAFUIN
TAF AMD
KUIN 012034Z 0121/0218 30007KT P6SM BKN025 OVC250
     FM020200 30007KT P6SM SCT020 BKN150
     FM021500 04005KT P6SM SCT015=



000
FTUS43 KLSX 012000 AAA
TAFUIN
TAF AMD
KUIN 012034Z 0121/0218 30007KT P6SM BKN025 OVC250
     FM020200 30007KT P6SM SCT020 BKN150
     FM021500 04005KT P6SM SCT015=



000
FTUS43 KLSX 011700
TAFUIN
TAF
KUIN 011722Z 0118/0218 30007KT P6SM OVC015
     FM020200 30007KT P6SM SCT020 BKN150
     FM021500 04005KT P6SM SCT015=



000
FTUS43 KLSX 011700
TAFSUS
TAF
KSUS 011722Z 0118/0218 VRB04KT 4SM -SN BR OVC008
     FM012100 31006KT 6SM -SN OVC015
     FM020000 32006KT P6SM OVC015
     FM020900 36005KT P6SM SCT015 BKN120
     FM021700 09005KT P6SM SCT015=



000
FTUS43 KLSX 011700
TAFSTL
TAF
KSTL 011722Z 0118/0224 VRB04KT 4SM -SN BR OVC008
      TEMPO 0118/0119 2SM -FZDZSN BR
     FM012100 31006KT 6SM -SN OVC015
     FM020000 32006KT P6SM OVC015
     FM020900 36005KT P6SM SCT015 BKN120
     FM021700 09005KT P6SM SCT015=



000
FTUS43 KLSX 011700
TAFCOU
TAF
KCOU 011722Z 0118/0218 30007KT P6SM OVC015
     FM020000 31005KT P6SM SCT020 BKN120
     FM021200 04005KT P6SM BKN250=



000
FTUS43 KLSX 011700
TAFSTL
TAF
KSTL 011722Z 0118/0224 VRB04KT 4SM -SN BR OVC008
      TEMPO 0118/0119 2SM -FZDZSN BR
     FM012100 31006KT 6SM -SN OVC015
     FM020000 32006KT P6SM OVC015
     FM020900 36005KT P6SM SCT015 BKN120
     FM021700 09005KT P6SM SCT015=



000
FTUS43 KLSX 011700
TAFCOU
TAF
KCOU 011722Z 0118/0218 30007KT P6SM OVC015
     FM020000 31005KT P6SM SCT020 BKN120
     FM021200 04005KT P6SM BKN250=



000
FTUS43 KLSX 011700
TAFSUS
TAF
KSUS 011722Z 0118/0218 VRB04KT 4SM -SN BR OVC008
     FM012100 31006KT 6SM -SN OVC015
     FM020000 32006KT P6SM OVC015
     FM020900 36005KT P6SM SCT015 BKN120
     FM021700 09005KT P6SM SCT015=



000
FTUS43 KLSX 011700
TAFUIN
TAF
KUIN 011722Z 0118/0218 30007KT P6SM OVC015
     FM020200 30007KT P6SM SCT020 BKN150
     FM021500 04005KT P6SM SCT015=



000
FTUS43 KLSX 011600 AAB
TAFUIN
TAF AMD
KUIN 011640Z 0117/0212 VRB04KT 3SM BR SCT025 OVC080
     FM011800 30007KT P6SM OVC015
     FM020000 30007KT P6SM SCT020 BKN120=



000
FTUS43 KLSX 011500 AAC
TAFCOU
TAF AMD
KCOU 011532Z 0116/0212 VRB04KT 1SM -SN BR BKN015
     FM011600 VRB04KT 3SM -SN BR OVC025
      TEMPO 0116/0117 2SM -SN BR BKN015
     FM011800 30007KT P6SM OVC015
     FM020000 31005KT P6SM SCT020 BKN120=



    US Dept of Commerce
    National Oceanic and Atmospheric Administration
    National Weather Service
    1325 East West Highway
    Silver Spring, MD 20910
    Page Author: NWS Internet Services Team
Disclaimer
Information Quality
Credits
Glossary
Privacy Policy
Freedom of Information Act (FOIA)
About Us
Career Opportunities